createdAt,value
2023-03-17T00:04:03.260Z,60.21
2023-03-17T00:09:12.240Z,60.62
2023-03-17T00:14:17.032Z,60.20
2023-03-17T00:19:32.346Z,60.37
2023-03-17T00:24:35.861Z,60.61
2023-03-17T00:29:41.348Z,60.36
2023-03-17T00:34:45.032Z,60.03
2023-03-17T00:39:49.737Z,59.82
2023-03-17T00:44:54.571Z,59.81
2023-03-17T00:49:58.685Z,60.09
2023-03-17T00:55:02.344Z,60.38
2023-03-17T01:00:18.103Z,59.93
2023-03-17T01:05:22.449Z,60.51
2023-03-17T01:10:28.343Z,59.76
2023-03-17T01:15:35.563Z,59.93
2023-03-17T01:20:40.041Z,60.37
2023-03-17T01:25:44.826Z,59.70
2023-03-17T01:30:50.142Z,59.34
2023-03-17T01:35:54.209Z,59.81
2023-03-17T01:40:57.589Z,59.54
2023-03-17T01:46:22.187Z,58.88
2023-03-17T01:51:32.201Z,59.25
2023-03-17T01:56:36.458Z,58.93
2023-03-17T02:01:47.571Z,58.80
2023-03-17T02:06:58.438Z,58.55
2023-03-17T02:12:04.194Z,59.00
2023-03-17T02:17:10.036Z,58.38
2023-03-17T02:22:15.497Z,58.39
2023-03-17T02:27:21.405Z,57.78
2023-03-17T02:32:25.466Z,57.33
2023-03-17T02:37:30.426Z,57.36
2023-03-17T02:42:34.675Z,57.09
2023-03-17T02:47:38.126Z,56.76
2023-03-17T02:52:42.963Z,56.72
2023-03-17T02:57:46.357Z,56.50
2023-03-17T03:02:49.843Z,56.08
2023-03-17T03:07:54.618Z,55.78
2023-03-17T03:12:57.927Z,55.77
2023-03-17T03:18:01.404Z,55.55
2023-03-17T03:23:06.378Z,55.29
2023-03-17T03:28:10.202Z,55.98
2023-03-17T03:33:14.569Z,55.38
2023-03-17T03:38:19.822Z,55.67
2023-03-17T03:43:24.197Z,54.94
2023-03-17T03:48:27.719Z,54.69
2023-03-17T03:53:32.816Z,54.16
2023-03-17T03:58:36.319Z,54.19
2023-03-17T04:03:40.526Z,53.97
2023-03-17T04:08:45.500Z,53.64
2023-03-17T04:13:48.549Z,53.54
2023-03-17T04:18:52.261Z,53.68
2023-03-17T04:23:57.371Z,53.07
2023-03-17T04:29:00.826Z,52.87
2023-03-17T04:34:04.266Z,52.36
2023-03-17T04:39:09.142Z,50.76
2023-03-17T04:44:12.181Z,51.18
2023-03-17T04:49:15.545Z,50.72
2023-03-17T04:54:20.496Z,50.23
2023-03-17T04:59:23.575Z,49.86
2023-03-17T05:04:31.644Z,41.73
2023-03-17T05:09:37.502Z,36.88
2023-03-17T05:14:41.146Z,34.73
2023-03-17T05:19:44.698Z,31.53
2023-03-17T05:24:49.606Z,28.75
2023-03-17T05:29:52.757Z,26.62
2023-03-17T05:34:56.287Z,24.73
2023-03-17T05:40:01.248Z,22.78
2023-03-17T05:45:05.355Z,25.31
2023-03-17T05:50:09.973Z,25.91
2023-03-17T05:55:14.979Z,28.47
2023-03-17T06:00:19.410Z,29.65
2023-03-17T06:05:23.015Z,29.98
2023-03-17T06:10:28.433Z,29.63
2023-03-17T06:15:32.793Z,29.85
2023-03-17T06:20:36.830Z,30.35
2023-03-17T06:25:41.693Z,30.39
2023-03-17T06:30:44.874Z,31.03
2023-03-17T06:35:48.559Z,29.92
2023-03-17T06:40:53.609Z,30.17
2023-03-17T06:45:57.200Z,30.20
2023-03-17T06:51:00.548Z,29.49
2023-03-17T06:56:05.916Z,29.25
2023-03-17T07:01:09.480Z,27.78
2023-03-17T07:06:13.421Z,22.26
2023-03-17T07:11:18.621Z,18.96
2023-03-17T07:16:22.555Z,16.01
2023-03-17T07:21:26.066Z,14.29
2023-03-17T07:26:32.243Z,12.19
2023-03-17T07:31:38.835Z,12.01
2023-03-17T07:36:42.807Z,12.20
2023-03-17T07:41:53.132Z,11.02
2023-03-17T07:46:56.715Z,11.11
2023-03-17T07:52:00.097Z,11.92
2023-03-17T07:57:05.451Z,12.77
2023-03-17T08:02:09.154Z,13.72
2023-03-17T08:07:13.280Z,14.93
2023-03-17T08:12:18.291Z,14.97
2023-03-17T08:17:21.789Z,15.17
2023-03-17T08:22:25.475Z,13.95
2023-03-17T08:27:33.214Z,12.95
2023-03-17T08:32:37.331Z,11.46
2023-03-17T08:37:40.902Z,11.16
2023-03-17T08:42:46.024Z,12.19
2023-03-17T08:47:49.617Z,12.47
2023-03-17T08:52:54.516Z,13.10
2023-03-17T08:57:59.383Z,14.35
2023-03-17T09:03:03.748Z,15.98
2023-03-17T09:08:07.847Z,17.71
2023-03-17T09:13:12.930Z,18.85
2023-03-17T09:18:16.389Z,19.68
2023-03-17T09:23:20.238Z,20.66
2023-03-17T09:28:25.042Z,20.70
2023-03-17T09:33:28.264Z,21.19
2023-03-17T09:38:31.992Z,19.97
2023-03-17T09:43:46.116Z,19.73
2023-03-17T09:48:59.494Z,20.90
2023-03-17T09:54:05.350Z,20.79
2023-03-17T09:59:31.290Z,20.67
2023-03-17T10:04:34.654Z,21.31
2023-03-17T10:09:42.902Z,22.25
2023-03-17T10:14:55.993Z,22.53
2023-03-17T10:20:02.533Z,22.51
2023-03-17T10:25:14.933Z,22.75
2023-03-17T10:30:22.270Z,23.25
2023-03-17T10:35:26.403Z,23.29
2023-03-17T10:40:32.268Z,23.33
2023-03-17T10:45:44.025Z,22.65
2023-03-17T10:50:49.573Z,22.69
2023-03-17T10:55:54.616Z,22.78
2023-03-17T11:01:00.523Z,23.58
2023-03-17T11:06:06.375Z,23.53
2023-03-17T11:11:22.929Z,23.04
2023-03-17T11:16:28.147Z,22.81
2023-03-17T11:21:34.884Z,23.79
2023-03-17T11:27:00.782Z,22.94
2023-03-17T11:32:23.816Z,22.38
2023-03-17T11:37:44.965Z,22.66
2023-03-17T11:43:04.381Z,22.43
2023-03-17T11:48:22.521Z,23.15
2023-03-17T11:53:46.513Z,22.81
2023-03-17T11:58:56.702Z,22.49
2023-03-17T12:04:10.650Z,22.46
2023-03-17T12:09:26.111Z,22.52
2023-03-17T12:14:33.198Z,22.47
2023-03-17T12:19:43.979Z,21.57
2023-03-17T12:24:54.771Z,22.29
2023-03-17T12:30:02.121Z,22.72
2023-03-17T12:35:26.895Z,22.15
2023-03-17T12:40:36.705Z,22.44
2023-03-17T12:45:54.206Z,22.42
2023-03-17T12:51:51.080Z,22.73
2023-03-17T12:57:03.972Z,22.19
2023-03-17T13:02:17.900Z,23.09
2023-03-17T13:07:27.190Z,22.87
2023-03-17T13:12:57.817Z,23.31
2023-03-17T13:18:29.240Z,23.40
2023-03-17T13:23:39.078Z,23.42
2023-03-17T13:28:48.863Z,23.30
2023-03-17T13:33:55.563Z,22.97
2023-03-17T13:39:30.627Z,23.24
2023-03-17T13:44:48.023Z,21.87
2023-03-17T13:49:53.040Z,21.80
2023-03-17T13:55:07.446Z,21.68
2023-03-17T14:00:24.625Z,21.94
2023-03-17T14:05:31.292Z,22.74
2023-03-17T14:10:37.439Z,21.99
2023-03-17T14:15:49.252Z,20.72
2023-03-17T14:20:57.364Z,22.02
2023-03-17T14:26:04.229Z,21.65
2023-03-17T14:31:09.084Z,22.70
2023-03-17T14:36:14.682Z,21.53
2023-03-17T14:41:20.676Z,21.41
2023-03-17T14:46:28.030Z,21.67
2023-03-17T14:51:36.104Z,22.79
2023-03-17T14:56:44.326Z,21.93
2023-03-17T15:01:49.094Z,22.13
2023-03-17T15:06:54.844Z,22.85
2023-03-17T15:12:06.924Z,22.74
2023-03-17T15:17:19.139Z,23.41
2023-03-17T15:22:26.139Z,23.77
2023-03-17T15:27:32.761Z,23.67
2023-03-17T15:32:36.729Z,23.75
2023-03-17T15:37:40.162Z,24.36
2023-03-17T15:42:45.566Z,24.55
2023-03-17T15:47:49.461Z,24.68
2023-03-17T15:52:56.009Z,25.25
2023-03-17T15:58:01.640Z,25.34
2023-03-17T16:03:15.273Z,25.89
2023-03-17T16:08:19.206Z,25.91
2023-03-17T16:13:24.254Z,26.39
2023-03-17T16:18:31.143Z,26.65
2023-03-17T16:23:37.412Z,27.00
2023-03-17T16:28:42.583Z,27.23
2023-03-17T16:33:45.831Z,27.59
2023-03-17T16:38:49.784Z,27.79
2023-03-17T16:43:59.644Z,28.10
2023-03-17T16:49:04.331Z,28.59
2023-03-17T16:54:07.973Z,28.50
2023-03-17T16:59:19.977Z,28.68
2023-03-17T17:04:24.450Z,28.79
2023-03-17T17:09:27.915Z,29.17
2023-03-17T17:14:32.840Z,29.89
2023-03-17T17:19:36.102Z,29.47
2023-03-17T17:24:39.667Z,30.23
2023-03-17T17:29:44.576Z,31.34
2023-03-17T17:34:47.631Z,31.40
2023-03-17T17:39:51.895Z,32.07
2023-03-17T17:44:56.766Z,32.06
2023-03-17T17:50:00.451Z,32.36
2023-03-17T17:55:03.952Z,32.42
2023-03-17T18:00:11.281Z,33.16
2023-03-17T18:05:14.857Z,33.39
2023-03-17T18:10:20.070Z,32.99
2023-03-17T18:15:26.596Z,33.53
2023-03-17T18:20:30.641Z,34.19
2023-03-17T18:25:34.393Z,34.35
2023-03-17T18:30:39.335Z,34.11
2023-03-17T18:35:42.773Z,34.07
2023-03-17T18:40:46.688Z,34.58
2023-03-17T18:45:51.574Z,35.10
2023-03-17T18:50:54.743Z,34.55
2023-03-17T18:55:59.565Z,35.42
2023-03-17T19:01:05.077Z,35.07
2023-03-17T19:06:09.138Z,35.76
2023-03-17T19:11:15.595Z,36.23
2023-03-17T19:16:20.557Z,36.58
2023-03-17T19:21:24.772Z,37.17
2023-03-17T19:26:28.715Z,37.07
2023-03-17T19:31:33.751Z,37.19
2023-03-17T19:36:38.219Z,37.64
2023-03-17T19:41:41.896Z,37.76
2023-03-17T19:46:46.841Z,37.89
2023-03-17T19:51:50.657Z,37.90
2023-03-17T19:56:54.178Z,38.29
2023-03-17T20:01:59.091Z,38.02
2023-03-17T20:07:02.282Z,37.75
2023-03-17T20:12:06.785Z,38.08
2023-03-17T20:17:12.298Z,37.90
2023-03-17T20:22:16.109Z,38.59
2023-03-17T20:27:19.869Z,38.70
2023-03-17T20:32:24.816Z,38.55
2023-03-17T20:37:28.360Z,39.36
2023-03-17T20:42:31.881Z,39.19
2023-03-17T20:47:36.758Z,39.69
2023-03-17T20:52:41.171Z,39.01
2023-03-17T20:57:47.773Z,40.07
2023-03-17T21:02:53.425Z,40.10
2023-03-17T21:07:57.869Z,40.35
2023-03-17T21:13:01.498Z,40.75
2023-03-17T21:18:07.026Z,40.60
2023-03-17T21:23:11.144Z,40.54
2023-03-17T21:28:15.656Z,40.93
2023-03-17T21:33:21.673Z,41.23
2023-03-17T21:38:25.102Z,41.63
2023-03-17T21:43:29.087Z,41.74
2023-03-17T21:48:33.850Z,41.93
2023-03-17T21:53:37.117Z,40.72
2023-03-17T21:58:40.736Z,41.98
2023-03-17T22:03:46.156Z,42.37
2023-03-17T22:08:50.761Z,42.56
2023-03-17T22:13:54.307Z,43.14
2023-03-17T22:18:59.084Z,42.30
2023-03-17T22:24:02.420Z,42.14
2023-03-17T22:29:06.835Z,42.39
2023-03-17T22:34:11.814Z,43.18
2023-03-17T22:39:15.306Z,42.82
2023-03-17T22:44:18.641Z,43.59
2023-03-17T22:49:23.828Z,43.63
2023-03-17T22:54:27.422Z,43.46
2023-03-17T22:59:30.961Z,44.03
2023-03-17T23:04:36.112Z,43.63
2023-03-17T23:09:41.461Z,43.56
2023-03-17T23:14:45.253Z,44.18
2023-03-17T23:19:50.164Z,44.52
2023-03-17T23:24:54.154Z,44.78
2023-03-17T23:29:59.332Z,44.03
2023-03-17T23:35:04.188Z,45.02
2023-03-17T23:40:09.401Z,44.35
2023-03-17T23:45:15.620Z,45.31
2023-03-17T23:50:21.928Z,44.62
2023-03-17T23:55:25.251Z,44.55
